Latest Weather Observations for Mangalore

IDV60801

Issued at 10:32 am EDT Friday 9 December 2016 (issued every 30 minutes, with the page automatically refreshed every 10 minutes)

About weather observations | Map of weather stations | Latest weather observations for VIC | Other Formats
Station Details ID: 088109 Name: MANGALORE AIRPORT Lat: -36.89 Lon: 145.19 Height: 140.8 m
Data from the previous 72 hours. | See also: Recent months at Mangalore
Date/Time
EDT
Temp
°C
App
Temp
°C
Dew
Point
°C
Rel
Hum
%
Delta-T
°C
Wind Press
QNH
hPa
Press
MSL
hPa
Rain since
9am
mm
Dir  Spd
km/h
Gust
km/h
Spd
kts
Gust
kts
09/10:30am 14.4 8.0 3.2 47 5.1 SSW 26 43 14 23 1016.5 1016.1 0.0
09/10:00am 14.5 7.8 3.6 48 5.0 SSW 28 46 15 25 1016.1 1015.7 0.0
09/09:36am 12.4 5.5 2.8 52 4.2 SSW 28 46 15 25 1016.0 1015.6 0.0
09/09:30am 12.6 5.3 2.7 51 4.4 SSW 30 46 16 25 1015.8 1015.4 0.0
09/09:24am 12.8 5.9 2.6 50 4.5 SSW 28 46 15 25 1015.7 1015.3 0.0
09/09:00am 12.3 5.5 3.3 54 4.0 SSW 28 43 15 23 1015.5 1015.1 9.8
09/08:30am 11.7 4.7 4.0 59 3.5 SSW 30 43 16 23 1014.8 1014.4 9.8
09/08:15am 11.0 4.3 3.8 61 3.2 SSW 28 46 15 25 1014.8 1014.4 9.8
09/08:00am 11.3 5.1 4.1 61 3.2 SSW 26 39 14 21 1014.4 1014.0 9.8
09/07:30am 10.7 5.2 4.2 64 2.9 SW 22 32 12 17 1013.8 1013.4 9.8
09/07:00am 10.0 4.9 4.2 67 2.6 SW 20 28 11 15 1013.2 1012.8 9.8
09/06:30am 9.5 4.5 3.5 66 2.6 SSW 19 30 10 16 1012.8 1012.4 9.8
09/06:00am 9.6 3.9 3.1 64 2.8 SSW 22 32 12 17 1012.1 1011.7 9.8
09/05:30am 9.8 4.1 2.9 62 3.0 SW 22 35 12 19 1011.6 1011.1 9.8
09/05:00am 9.6 4.9 3.4 65 2.7 SW 17 22 9 12 1010.9 1010.5 9.8
09/04:30am 9.8 5.7 4.2 68 2.5 SW 15 20 8 11 1010.7 1010.3 9.8
09/04:00am 10.3 5.3 4.7 68 2.5 SSW 20 28 11 15 1010.3 1009.9 9.8
09/03:30am 10.7 5.7 4.6 66 2.8 SW 20 32 11 17 1009.9 1009.5 9.8
09/03:00am 11.1 6.8 5.2 67 2.7 SW 17 26 9 14 1009.7 1009.3 9.8
09/02:30am 11.3 7.3 5.0 65 2.9 SW 15 20 8 11 1009.4 1009.0 9.8
09/02:00am 10.8 6.2 5.8 71 2.3 WSW 19 26 10 14 1009.3 1008.9 9.8
09/01:30am 11.7 7.5 5.6 66 2.9 SW 17 24 9 13 1009.1 1008.7 9.8
09/01:00am 11.9 7.9 6.6 70 2.5 SSW 17 24 9 13 1009.0 1008.6 9.8
09/12:30am 12.3 8.0 7.0 70 2.6 SSW 19 28 10 15 1008.9 1008.5 9.8
09/12:00am 12.7 6.4 7.4 70 2.6 SW 30 46 16 25 1008.8 1008.4 9.8
 
Date/Time
EDT
Temp
°C
App
Temp
°C
Dew
Point
°C
Rel
Hum
%
Delta-T
°C
Wind Press
QNH
hPa
Press
MSL
hPa
Rain since
9am
mm
Dir  Spd
km/h
Gust
km/h
Spd
kts
Gust
kts
08/11:54pm 13.3 7.3 7.1 66 3.0 SW 28 46 15 25 1008.6 1008.2 9.8
08/11:30pm 13.7 9.3 7.5 66 3.1 SW 20 30 11 16 1008.3 1007.9 9.8
08/11:00pm 14.2 10.1 7.7 65 3.2 SW 19 28 10 15 1008.0 1007.6 9.8
08/10:30pm 14.4 9.4 7.9 65 3.3 SW 24 32 13 17 1007.6 1007.2 9.8
08/10:00pm 14.5 10.0 8.7 68 3.0 WSW 22 30 12 16 1007.1 1006.7 9.8
08/09:30pm 14.8 9.4 8.1 64 3.4 WSW 26 33 14 18 1006.2 1005.8 9.8
08/09:00pm 15.6 10.1 7.6 59 4.0 WSW 26 37 14 20 1005.6 1005.2 9.8
08/08:30pm 15.9 10.5 7.9 59 4.0 WSW 26 35 14 19 1005.0 1004.5 9.8
08/08:00pm 15.8 11.5 7.8 59 4.1 SW 20 30 11 16 1004.4 1003.9 9.8
08/07:30pm 16.2 9.6 6.1 51 4.9 SW 30 54 16 29 1003.7 1003.3 9.8
08/07:27pm 16.9 10.6 5.8 48 5.4 SW 28 54 15 29 1003.6 1003.2 9.8
08/07:00pm 19.4 12.0 5.1 39 7.0 WSW 33 46 18 25 1002.8 1002.4 9.8
08/06:30pm 19.0 11.5 6.2 43 6.4 WSW 35 48 19 26 1001.8 1001.4 9.8
08/06:15pm 20.4 10.9 6.7 41 7.0 WSW 46 67 25 36 1001.2 1000.8 9.8
08/06:11pm 20.5 11.2 5.7 38 7.4 WSW 44 67 24 36 1000.9 1000.5 9.8
08/06:02pm 21.7 14.4 4.3 32 8.5 W 32 50 17 27 1000.4 1000.0 9.8
08/06:00pm 21.2 13.8 3.9 32 8.4 W 32 41 17 22 1000.4 1000.0 9.8
08/05:30pm 21.0 12.6 3.7 32 8.3 W 37 52 20 28 1000.1 999.7 9.8
08/05:23pm 22.2 15.6 4.3 31 8.8 W 28 52 15 28 999.9 999.5 9.8
08/05:00pm 22.3 15.0 5.3 33 8.6 W 33 48 18 26 999.8 999.4 9.8
08/04:45pm 22.4 14.9 4.5 31 8.9 W 33 52 18 28 999.7 999.3 9.8
08/04:30pm 22.2 15.0 5.2 33 8.5 W 32 41 17 22 999.6 999.2 9.8
08/04:00pm 22.0 14.8 5.8 35 8.2 W 33 44 18 24 999.6 999.2 9.8
08/03:30pm 20.9 15.0 7.5 42 6.9 W 28 48 15 26 999.7 999.3 9.8
08/03:00pm 19.1 16.9 13.3 69 3.3 NNW 17 26 9 14 999.9 999.5 9.6
08/02:30pm 16.1 13.8 13.0 82 1.7 N 17 24 9 13 1000.2 999.8 9.6
08/02:00pm 14.8 13.7 13.0 89 1.0 N 11 17 6 9 1000.3 999.9 9.6
08/01:30pm 14.2 11.9 11.9 86 1.2 NNW 15 22 8 12 1001.1 1000.7 9.6
08/01:00pm 13.1 10.9 10.8 86 1.2 WNW 13 19 7 10 1000.5 1000.1 9.4
08/12:47pm 13.4 11.0 11.5 88 1.0 WNW 15 20 8 11 1000.4 1000.0 9.4
08/12:30pm 13.1 9.1 11.7 91 0.8 W 24 37 13 20 1000.4 1000.0 8.8
08/12:24pm 13.4 8.0 12.1 92 0.7 W 32 52 17 28 1000.5 1000.1 8.4
08/12:01pm 15.3 10.6 13.3 88 1.1 WNW 30 63 16 34 999.8 999.4 4.2
08/12:00pm 15.5 11.2 13.3 87 1.2 WNW 28 63 15 34 999.8 999.4 4.2
08/11:59am 15.7 11.8 13.2 85 1.4 WNW 26 63 14 34 999.7 999.3 4.2
08/11:51am 18.4 17.1 17.2 93 0.7 NNW 20 28 11 15 999.2 998.7 3.8
08/11:30am 18.6 17.1 16.2 86 1.4 N 19 28 10 15 999.2 998.7 3.8
08/11:00am 17.6 16.8 16.1 91 0.9 NNE 15 28 8 15 999.5 999.1 3.8
08/10:58am 17.5 16.7 16.0 91 0.9 NNE 15 20 8 11 999.6 999.2 3.8
08/10:34am 17.2 16.6 15.7 91 0.9 NNE 13 19 7 10 1000.0 999.6 2.8
08/10:30am 17.3 16.7 15.6 90 1.0 NNE 13 19 7 10 1000.0 999.6 2.6
08/10:00am 17.3 15.9 15.5 89 1.1 NNE 17 20 9 11 999.9 999.5 1.6
08/09:36am 16.6 14.9 14.6 88 1.2 NE 17 26 9 14 1000.3 999.9 1.2
08/09:30am 16.2 14.4 14.4 89 1.0 NE 17 20 9 11 1000.2 999.8 1.0
08/09:20am 16.3 14.8 14.3 88 1.1 ENE 15 19 8 10 1000.5 1000.1 0.6
08/09:00am 16.5 14.7 14.5 88 1.2 SSW 17 20 9 11 1000.4 1000.0 1.2
08/08:30am 16.3 16.0 12.8 80 2.0 WSW 6 43 3 23 1001.7 1001.3 0.8
08/08:00am 17.4 14.6 11.2 67 3.4 NNW 17 32 9 17 1002.0 1001.6 0.4
08/07:50am 18.5 16.2 10.6 60 4.3 N 13 20 7 11 1000.8 1000.4 0.4
08/07:33am 18.6 16.5 9.9 57 4.7 N 11 15 6 8 1000.8 1000.4 0.4
08/07:30am 19.1 17.0 9.9 55 4.9 NNE 11 15 6 8 1001.3 1000.9 0.0
08/07:00am 20.1 17.7 6.8 42 6.8 NNE 9 15 5 8 1001.6 1001.2 0.0
08/06:30am 19.9 15.2 5.2 38 7.2 NNE 19 24 10 13 1001.8 1001.4 0.0
08/06:00am 20.1 14.7 4.6 36 7.6 NNE 22 33 12 18 1001.5 1001.1 0.0
08/05:30am 19.8 13.8 3.5 34 7.8 NNE 24 33 13 18 1001.6 1001.2 0.0
08/05:00am 20.3 13.0 2.6 31 8.4 NE 30 41 16 22 1001.6 1001.2 0.0
08/04:30am 20.1 13.2 2.5 31 8.2 NE 28 37 15 20 1002.2 1001.8 0.0
08/04:00am 20.3 13.7 2.2 30 8.5 NE 26 35 14 19 1002.7 1002.3 0.0
08/03:30am 20.1 14.3 2.5 31 8.2 NE 22 32 12 17 1002.9 1002.5 0.0
08/03:00am 19.7 14.5 2.6 32 8.0 NE 19 24 10 13 1003.5 1003.1 0.0
08/02:30am 19.6 14.2 2.5 32 8.0 NE 20 26 11 14 1003.6 1003.2 0.0
08/02:00am 20.0 14.7 2.8 32 8.1 NE 20 26 11 14 1004.3 1003.8 0.0
08/01:30am 19.6 14.5 2.9 33 7.8 NE 19 24 10 13 1004.9 1004.4 0.0
08/01:00am 19.1 14.4 3.3 35 7.5 NE 17 20 9 11 1005.8 1005.4 0.0
08/12:30am 18.8 14.2 3.8 37 7.1 NE 17 20 9 11 1006.4 1006.0 0.0
08/12:00am 18.6 14.1 4.4 39 6.8 N 17 20 9 11 1006.6 1006.2 0.0
 
Date/Time
EDT
Temp
°C
App
Temp
°C
Dew
Point
°C
Rel
Hum
%
Delta-T
°C
Wind Press
QNH
hPa
Press
MSL
hPa
Rain since
9am
mm
Dir  Spd
km/h
Gust
km/h
Spd
kts
Gust
kts
07/11:30pm 17.9 13.8 4.5 41 6.4 N 15 17 8 9 1007.3 1006.9 0.0
07/11:00pm 17.9 14.3 4.8 42 6.3 N 13 17 7 9 1007.5 1007.1 0.0
07/10:30pm 18.5 14.5 5.0 41 6.6 N 15 17 8 9 1007.6 1007.2 0.0
07/10:00pm 17.9 14.3 5.2 43 6.2 N 13 13 7 7 1008.0 1007.6 0.0
07/09:30pm 19.1 15.4 4.5 38 7.1 N 13 13 7 7 1008.2 1007.8 0.0
07/09:00pm 20.3 16.9 3.9 34 7.9 N 11 13 6 7 1008.3 1007.9 0.0
07/08:30pm 22.0 18.5 3.6 30 8.9 N 11 13 6 7 1008.5 1008.1 0.0
07/08:00pm 24.9 21.2 2.4 23 10.9 N 11 13 6 7 1008.5 1008.1 0.0
07/07:30pm 26.9 22.3 1.3 19 12.3 NNW 15 19 8 10 1008.7 1008.3 0.0
07/07:00pm 27.7 23.0 1.2 18 12.8 NW 15 19 8 10 1008.8 1008.4 0.0
07/06:30pm 28.0 22.9 0.7 17 13.1 NW 17 26 9 14 1009.0 1008.6 0.0
07/06:00pm 28.5 23.5 1.1 17 13.3 WNW 17 28 9 15 1009.3 1008.9 0.0
07/05:30pm 27.9 24.1 -1.1 15 13.5 NW 9 17 5 9 1009.5 1009.1 0.0
07/05:00pm 28.6 23.7 -0.5 15 13.7 NNW 15 26 8 14 1010.2 1009.8 0.0
07/04:30pm 27.8 23.9 1.3 18 12.8 N 11 24 6 13 1010.6 1010.2 0.0
07/04:00pm 28.3 24.2 2.5 19 12.8 WNW 13 24 7 13 1011.1 1010.7 0.0
07/03:30pm 27.3 23.2 4.4 23 11.7 NNE 15 26 8 14 1011.6 1011.1 0.0
07/03:00pm 26.2 21.4 4.6 25 11.0 N 19 32 10 17 1012.2 1011.8 0.0
07/02:30pm 26.5 22.7 6.0 27 10.7 NNW 15 24 8 13 1012.6 1012.2 0.0
07/02:00pm 25.5 21.7 5.7 28 10.2 N 15 28 8 15 1012.9 1012.5 0.0
07/01:30pm 25.8 21.9 6.9 30 10.0 N 17 22 9 12 1013.4 1013.0 0.0
07/01:00pm 24.0 21.3 5.8 31 9.3 N 9 17 5 9 1013.8 1013.4 0.0
07/12:30pm 23.8 21.0 5.2 30 9.4 WSW 9 17 5 9 1014.2 1013.8 0.0
07/12:00pm 22.9 20.2 5.8 33 8.7 S 9 17 5 9 1014.6 1014.2 0.0
07/11:30am 21.8 18.5 4.4 32 8.6 WSW 11 19 6 10 1014.8 1014.4 0.0
07/11:00am 21.0 18.3 5.4 36 7.8 W 9 15 5 8 1015.1 1014.7 0.0
07/10:30am 20.8 18.7 6.7 40 7.2 SW 7 17 4 9 1015.3 1014.9 0.0
07/10:00am 19.4 17.4 6.2 42 6.6 SSW 6 7 3 4 1015.5 1015.1 0.0
07/09:30am 18.3 16.2 6.5 46 5.9 SSW 7 9 4 5 1015.5 1015.1 0.0
07/09:00am 18.1 16.5 8.1 52 5.1 SSW 6 7 3 4 1015.4 1015.0 0.0
07/08:30am 15.4 12.8 7.7 60 3.9 SSW 11 15 6 8 1015.3 1014.9 0.0
07/08:00am 13.2 10.6 7.9 70 2.6 SSW 11 17 6 9 1015.2 1014.8 0.0
07/07:30am 11.9 8.2 7.8 76 2.0 SSW 17 20 9 11 1015.1 1014.7 0.0
07/07:00am 10.6 7.6 7.7 82 1.4 SSW 13 20 7 11 1014.8 1014.4 0.0
07/06:30am 9.5 6.4 7.3 86 1.0 SSW 13 17 7 9 1014.4 1014.0 0.0
07/06:00am 9.2 6.1 7.2 87 0.9 SW 13 19 7 10 1014.2 1013.8 0.0
07/05:30am 9.4 6.3 7.2 86 1.0 SSW 13 19 7 10 1014.0 1013.6 0.0
07/05:00am 9.6 6.1 7.2 85 1.1 SSW 15 19 8 10 1013.8 1013.4 0.0
07/04:30am 9.6 6.5 7.2 85 1.1 SW 13 17 7 9 1013.8 1013.4 0.0
07/04:00am 9.8 6.7 7.4 85 1.1 SSW 13 19 7 10 1013.5 1013.1 0.0
07/03:30am 10.0 6.9 7.4 84 1.2 SSW 13 17 7 9 1013.6 1013.2 0.0
07/03:00am 10.8 7.4 7.7 81 1.5 SSW 15 20 8 11 1013.7 1013.3 0.0
07/02:30am 11.2 8.2 7.9 80 1.6 SSW 13 19 7 10 1013.8 1013.4 0.0
07/02:00am 11.3 8.3 7.8 79 1.7 SW 13 19 7 10 1014.0 1013.6 0.0
07/01:30am 11.6 8.6 7.9 78 1.8 SSW 13 17 7 9 1014.2 1013.8 0.0
07/01:00am 12.0 9.1 8.1 77 1.9 SSW 13 19 7 10 1014.4 1014.0 0.0
07/12:30am 12.4 9.5 8.3 76 2.0 S 13 19 7 10 1014.6 1014.2 0.0
07/12:00am 12.8 9.6 8.3 74 2.2 SSW 15 20 8 11 1014.8 1014.4 0.0
 
Date/Time
EDT
Temp
°C
App
Temp
°C
Dew
Point
°C
Rel
Hum
%
Delta-T
°C
Wind Press
QNH
hPa
Press
MSL
hPa
Rain since
9am
mm
Dir  Spd
km/h
Gust
km/h
Spd
kts
Gust
kts
06/11:30pm 13.4 9.4 8.3 71 2.6 SSW 19 24 10 13 1014.7 1014.3 0.0
06/11:00pm 13.9 9.9 8.1 68 2.9 SSW 19 26 10 14 1014.5 1014.1 0.0
06/10:30pm 14.4 10.7 7.9 65 3.3 SSW 17 24 9 13 1014.4 1014.0 0.0
06/10:00pm 15.1 10.9 7.4 60 3.8 SSW 19 26 10 14 1014.4 1014.0 0.0
06/09:30pm 16.2 12.4 7.4 56 4.4 SSW 17 24 9 13 1014.1 1013.7 0.0
06/09:00pm 17.8 13.4 7.5 51 5.2 SSW 20 24 11 13 1013.5 1013.1 0.0
06/08:30pm 19.9 16.1 7.6 45 6.3 SSW 17 22 9 12 1013.0 1012.6 0.0
06/08:00pm 21.1 17.3 7.7 42 7.0 SSW 17 20 9 11 1012.6 1012.2 0.0
06/07:30pm 22.4 18.9 7.4 38 7.8 SSW 15 19 8 10 1012.2 1011.8 0.0
06/07:00pm 23.4 19.9 7.1 35 8.5 SSW 15 20 8 11 1011.8 1011.4 0.0
06/06:30pm 23.6 19.5 6.4 33 8.9 S 17 24 9 13 1011.4 1010.9 0.0
06/06:00pm 24.4 20.3 8.0 35 8.8 SW 19 24 10 13 1011.5 1011.0 0.0
06/05:30pm 24.2 21.4 6.9 33 9.0 SSW 11 20 6 11 1011.5 1011.0 0.0
06/05:00pm 24.6 21.0 6.8 32 9.3 SW 15 24 8 13 1011.8 1011.4 0.0
06/04:30pm 23.9 20.5 5.8 31 9.3 W 13 20 7 11 1011.6 1011.1 0.0
06/04:00pm 24.3 21.9 7.0 33 9.1 NNW 9 20 5 11 1011.9 1011.5 0.0
06/03:30pm 24.3 21.4 8.3 36 8.6 W 13 20 7 11 1012.1 1011.7 0.0
06/03:00pm 23.5 19.9 8.4 38 8.1 WSW 17 24 9 13 1012.4 1012.0 0.0
06/02:30pm 22.4 19.0 7.8 39 7.7 W 15 20 8 11 1012.6 1012.2 0.0
06/02:00pm 21.9 18.0 8.8 43 7.0 WNW 19 30 10 16 1013.0 1012.6 0.0
06/01:30pm 20.9 18.5 8.5 45 6.5 WSW 11 20 6 11 1012.9 1012.5 0.0
06/01:00pm 21.1 18.8 10.3 50 5.9 WSW 13 19 7 10 1013.2 1012.8 0.0
06/12:30pm 19.1 17.4 9.9 55 4.9 SSW 9 15 5 8 1013.6 1013.2 0.0
06/12:00pm 17.6 15.1 9.8 60 4.1 SSW 13 19 7 10 1013.5 1013.1 0.0
06/11:30am 17.2 14.9 10.3 64 3.7 SW 13 17 7 9 1013.9 1013.5 0.0
06/11:00am 15.9 13.4 9.6 66 3.3 SSW 13 20 7 11 1013.9 1013.5 0.0

Other Formats:

Comma delimited format used in spreadsheet applications
http://www.bom.gov.au/fwo/IDV60801/IDV60801.94874.axf

JavaScript Object Notation format (JSON) in row-major order
http://www.bom.gov.au/fwo/IDV60801/IDV60801.94874.json